createdAt,value
2022-12-12T00:01:04.696Z,24.52
2022-12-12T00:03:48.079Z,29.35
2022-12-12T00:06:19.628Z,26.00
2022-12-12T00:09:04.762Z,24.58
2022-12-12T00:11:38.813Z,23.65
2022-12-12T00:14:24.606Z,21.35
2022-12-12T00:17:00.300Z,24.70
2022-12-12T00:19:33.014Z,26.50
2022-12-12T00:22:22.076Z,24.77
2022-12-12T00:24:54.609Z,21.67
2022-12-12T00:29:06.637Z,20.20
2022-12-12T00:31:42.594Z,21.15
2022-12-12T00:34:26.224Z,21.55
2022-12-12T00:37:13.862Z,20.60
2022-12-12T00:39:45.826Z,18.85
2022-12-12T00:42:25.890Z,21.13
2022-12-12T00:45:07.571Z,19.60
2022-12-12T00:47:53.091Z,16.38
2022-12-12T00:50:24.909Z,18.30
2022-12-12T00:52:55.939Z,21.27
2022-12-12T00:55:36.925Z,20.13
2022-12-12T00:58:23.122Z,18.65
2022-12-12T01:01:16.740Z,20.85
2022-12-12T01:04:14.670Z,21.42
2022-12-12T01:06:49.505Z,22.05
2022-12-12T01:09:43.987Z,18.67
2022-12-12T01:12:19.744Z,22.35
2022-12-12T01:14:51.592Z,23.30
2022-12-12T01:17:23.062Z,19.02
2022-12-12T01:19:57.744Z,24.90
2022-12-12T01:23:20.019Z,22.13
2022-12-12T01:26:19.743Z,24.23
2022-12-12T01:28:50.787Z,21.23
2022-12-12T01:31:19.590Z,22.10
2022-12-12T01:33:48.057Z,24.52
2022-12-12T01:36:21.591Z,22.30
2022-12-12T01:38:51.917Z,25.55
2022-12-12T01:41:37.582Z,22.02
2022-12-12T01:44:39.374Z,26.67
2022-12-12T01:47:26.983Z,25.77
2022-12-12T01:50:18.127Z,25.88
2022-12-12T01:53:00.891Z,27.27
2022-12-12T01:55:33.874Z,28.03
2022-12-12T01:58:09.044Z,25.60
2022-12-12T02:03:36.211Z,25.88
2022-12-12T02:06:35.424Z,27.58
2022-12-12T02:09:48.804Z,28.13
2022-12-12T02:12:43.076Z,25.00
2022-12-12T02:15:20.967Z,27.73
2022-12-12T02:18:36.147Z,29.75
2022-12-12T02:21:40.946Z,31.85
2022-12-12T02:32:06.246Z,27.40
2022-12-12T02:39:02.883Z,25.13
2022-12-12T02:42:08.981Z,24.38
2022-12-12T02:45:04.478Z,26.73
2022-12-12T02:47:59.119Z,26.90
2022-12-12T02:50:30.519Z,28.15
2022-12-12T02:53:06.582Z,27.58
2022-12-12T02:55:51.886Z,31.27
2022-12-12T02:58:31.118Z,28.23
2022-12-12T03:01:25.683Z,29.48
2022-12-12T03:04:21.909Z,28.08
2022-12-12T03:07:43.790Z,26.83
2022-12-12T03:10:43.095Z,27.60
2022-12-12T03:13:51.054Z,28.23
2022-12-12T03:16:53.989Z,28.20
2022-12-12T03:23:09.130Z,29.00
2022-12-12T03:26:39.423Z,26.30
2022-12-12T03:29:31.128Z,27.45
2022-12-12T03:32:15.696Z,29.38
2022-12-12T03:34:55.857Z,29.42
2022-12-12T03:37:28.565Z,29.67
2022-12-12T03:40:06.329Z,30.25
2022-12-12T03:42:53.042Z,31.17
2022-12-12T03:45:34.051Z,31.40
2022-12-12T03:48:22.960Z,29.45
2022-12-12T03:51:11.444Z,26.55
2022-12-12T03:54:36.812Z,27.70
2022-12-12T03:57:29.453Z,30.88
2022-12-12T04:00:08.983Z,31.23
2022-12-12T04:03:16.332Z,31.42
2022-12-12T04:06:27.507Z,29.45
2022-12-12T04:09:38.649Z,34.00
2022-12-12T04:12:46.040Z,29.25
2022-12-12T04:16:10.502Z,31.92
2022-12-12T04:19:36.951Z,32.08
2022-12-12T04:22:43.807Z,32.97
2022-12-12T04:26:12.342Z,32.17
2022-12-12T04:28:52.654Z,33.35
2022-12-12T04:31:33.694Z,35.17
2022-12-12T04:34:28.741Z,31.48
2022-12-12T04:37:26.503Z,33.20
2022-12-12T04:40:15.140Z,31.75
2022-12-12T04:49:12.412Z,32.65
2022-12-12T04:52:11.580Z,35.22
2022-12-12T04:55:24.139Z,33.88
2022-12-12T04:57:57.357Z,31.52
2022-12-12T05:00:35.178Z,31.13
2022-12-12T05:03:44.194Z,33.65
2022-12-12T05:06:19.621Z,34.60
2022-12-12T05:08:57.543Z,35.75
2022-12-12T05:14:20.772Z,34.05
2022-12-12T05:16:54.609Z,38.28
2022-12-12T05:19:25.749Z,34.15
2022-12-12T05:21:56.807Z,35.85
2022-12-12T05:24:31.317Z,35.67
2022-12-12T05:27:03.968Z,38.83
2022-12-12T05:29:40.175Z,33.50
2022-12-12T05:32:11.288Z,33.13
2022-12-12T05:34:43.913Z,37.92
2022-12-12T05:37:22.810Z,32.13
2022-12-12T05:39:55.909Z,34.88
2022-12-12T05:42:34.974Z,33.38
2022-12-12T05:45:20.998Z,34.35
2022-12-12T05:47:55.663Z,33.33
2022-12-12T05:53:47.358Z,36.17
2022-12-12T05:57:38.828Z,35.90
2022-12-12T06:00:21.861Z,33.78
2022-12-12T06:02:57.795Z,38.33
2022-12-12T06:05:48.314Z,39.58
2022-12-12T06:08:50.365Z,41.60
2022-12-12T06:11:21.415Z,40.35
2022-12-12T06:13:50.212Z,37.17
2022-12-12T06:16:20.907Z,39.67
2022-12-12T06:18:56.594Z,42.45
2022-12-12T06:21:29.579Z,38.38
2022-12-12T06:24:05.235Z,38.22
2022-12-12T06:26:51.774Z,41.05
2022-12-12T06:29:19.912Z,45.65
2022-12-12T06:31:54.682Z,47.53
2022-12-12T06:34:31.446Z,43.58
2022-12-12T06:37:11.763Z,42.15
2022-12-12T06:39:48.164Z,42.30
2022-12-12T06:42:32.295Z,40.53
2022-12-12T06:45:28.628Z,40.63
2022-12-12T06:51:25.294Z,39.67
2022-12-12T07:02:57.788Z,40.67
2022-12-12T07:14:16.996Z,42.60
2022-12-12T07:20:11.519Z,37.23
2022-12-12T07:22:53.482Z,39.58
2022-12-12T07:25:30.255Z,37.22
2022-12-12T07:28:25.668Z,37.22
2022-12-12T07:31:58.473Z,36.70
2022-12-12T07:39:21.339Z,25.45
2022-12-12T07:42:25.258Z,26.35
2022-12-12T07:45:50.810Z,21.77
2022-12-12T07:48:29.526Z,24.50
2022-12-12T07:51:20.828Z,28.10
2022-12-12T07:54:15.333Z,30.42
2022-12-12T07:57:06.859Z,32.42
2022-12-12T08:00:19.021Z,32.55
2022-12-12T08:03:04.744Z,32.25
2022-12-12T08:05:49.825Z,38.35
2022-12-12T08:12:07.297Z,37.22
2022-12-12T08:14:50.195Z,30.30
2022-12-12T08:17:47.204Z,31.42
2022-12-12T08:20:36.987Z,30.65
2022-12-12T08:23:12.379Z,31.35
2022-12-12T08:26:32.450Z,30.37
2022-12-12T08:29:29.679Z,30.17
2022-12-12T08:32:09.808Z,33.05
2022-12-12T08:35:06.513Z,27.38
2022-12-12T08:38:20.054Z,28.63
2022-12-12T08:40:52.075Z,26.50
2022-12-12T08:43:31.511Z,30.27
2022-12-12T08:46:16.972Z,29.77
2022-12-12T08:48:46.999Z,26.88
2022-12-12T08:51:19.843Z,24.35
2022-12-12T08:53:49.129Z,26.27
2022-12-12T08:56:20.821Z,21.65
2022-12-12T08:58:51.308Z,23.58
2022-12-12T09:01:25.183Z,24.77
2022-12-12T09:03:54.811Z,22.63
2022-12-12T09:06:23.766Z,24.98
2022-12-12T09:08:51.822Z,26.85
2022-12-12T09:11:22.794Z,25.05
2022-12-12T09:13:58.254Z,25.58
2022-12-12T09:16:30.570Z,24.92
2022-12-12T09:19:02.647Z,20.60
2022-12-12T09:21:42.355Z,21.77
2022-12-12T09:24:13.577Z,21.38
2022-12-12T09:26:45.770Z,24.00
2022-12-12T09:29:33.880Z,25.17
2022-12-12T09:32:08.930Z,24.17
2022-12-12T09:38:02.538Z,24.80
2022-12-12T09:41:16.097Z,24.50
2022-12-12T09:44:27.179Z,25.65
2022-12-12T09:47:20.830Z,22.92
2022-12-12T09:50:03.131Z,25.23
2022-12-12T09:53:08.887Z,23.23
2022-12-12T09:56:29.919Z,21.52
2022-12-12T09:59:57.791Z,20.98
2022-12-12T10:03:12.387Z,25.15
2022-12-12T10:06:35.823Z,19.00
2022-12-12T10:10:02.952Z,22.15
2022-12-12T10:13:19.301Z,22.52
2022-12-12T10:16:25.609Z,21.55
2022-12-12T10:19:37.545Z,22.00
2022-12-12T10:22:59.274Z,21.73
2022-12-12T10:26:02.251Z,24.30
2022-12-12T10:31:55.353Z,24.88
2022-12-12T10:34:55.281Z,21.77
2022-12-12T10:38:02.963Z,23.85
2022-12-12T10:41:08.279Z,23.60
2022-12-12T10:43:57.079Z,24.40
2022-12-12T10:46:32.151Z,19.63
2022-12-12T10:49:25.436Z,21.23
2022-12-12T10:51:57.897Z,17.63
2022-12-12T10:54:40.448Z,18.20
2022-12-12T10:57:20.541Z,19.50
2022-12-12T10:59:57.142Z,19.55
2022-12-12T11:02:39.752Z,21.05
2022-12-12T11:05:25.244Z,22.00
2022-12-12T11:08:09.654Z,24.50
2022-12-12T11:10:43.306Z,22.88
2022-12-12T11:13:11.267Z,29.02
2022-12-12T11:16:08.718Z,25.77
2022-12-12T11:18:43.354Z,25.20
2022-12-12T11:23:57.583Z,23.42
2022-12-12T11:26:28.162Z,27.67
2022-12-12T11:29:08.307Z,24.98
2022-12-12T11:31:47.588Z,24.52
2022-12-12T11:34:15.672Z,26.08
2022-12-12T11:36:49.714Z,25.92
2022-12-12T11:39:38.793Z,27.70
2022-12-12T11:42:27.301Z,26.95
2022-12-12T11:45:08.111Z,28.42
2022-12-12T11:48:01.232Z,27.70
2022-12-12T11:50:37.988Z,31.52
2022-12-12T11:53:15.844Z,31.80
2022-12-12T11:55:56.913Z,29.88
2022-12-12T11:58:59.848Z,34.20
2022-12-12T12:02:11.413Z,29.75
2022-12-12T12:05:20.850Z,28.25
2022-12-12T12:08:14.915Z,28.30
2022-12-12T12:11:01.776Z,33.90
2022-12-12T12:14:19.182Z,32.50
2022-12-12T12:17:22.591Z,30.38
2022-12-12T12:19:54.045Z,31.65
2022-12-12T12:22:55.863Z,25.30
2022-12-12T12:25:23.803Z,27.67
2022-12-12T12:28:29.615Z,28.60
2022-12-12T12:31:35.964Z,27.63
2022-12-12T12:34:22.024Z,30.58
2022-12-12T12:36:52.557Z,28.73
2022-12-12T12:42:36.127Z,26.88
2022-12-12T12:45:41.739Z,25.75
2022-12-12T12:48:20.243Z,28.63
2022-12-12T12:51:22.776Z,27.00
2022-12-12T12:54:06.359Z,33.47
2022-12-12T12:56:49.795Z,33.25
2022-12-12T12:59:38.961Z,30.98
2022-12-12T13:02:36.922Z,37.65
2022-12-12T13:05:41.513Z,35.50
2022-12-12T13:08:31.459Z,32.65
2022-12-12T13:11:29.886Z,36.38
2022-12-12T13:14:37.304Z,31.65
2022-12-12T13:17:23.732Z,33.58
2022-12-12T13:23:55.966Z,31.52
2022-12-12T13:26:47.828Z,38.67
2022-12-12T13:29:52.557Z,35.28
2022-12-12T13:32:42.108Z,31.67
2022-12-12T13:35:38.751Z,31.17
2022-12-12T13:38:18.638Z,33.08
2022-12-12T13:41:10.662Z,35.27
2022-12-12T13:43:49.506Z,30.38
2022-12-12T13:50:07.015Z,35.83
2022-12-12T13:52:43.205Z,34.72
2022-12-12T13:55:19.364Z,37.00
2022-12-12T13:58:17.247Z,36.75
2022-12-12T14:01:30.407Z,35.67
2022-12-12T14:04:23.350Z,33.47
2022-12-12T14:08:08.780Z,38.38
2022-12-12T14:11:18.138Z,40.67
2022-12-12T14:14:25.246Z,37.28
2022-12-12T14:16:59.337Z,40.78
2022-12-12T14:19:41.030Z,40.60
2022-12-12T14:25:35.132Z,43.53
2022-12-12T14:28:36.795Z,42.63
2022-12-12T14:31:18.575Z,41.97
2022-12-12T14:34:00.504Z,41.08
2022-12-12T14:36:59.704Z,42.88
2022-12-12T14:39:54.053Z,41.22
2022-12-12T14:43:17.803Z,45.30
2022-12-12T14:45:58.281Z,54.42
2022-12-12T14:48:40.096Z,45.28
2022-12-12T14:54:00.724Z,46.30
2022-12-12T14:56:45.292Z,47.90
2022-12-12T14:59:46.767Z,46.78
2022-12-12T15:02:37.445Z,50.03
2022-12-12T15:07:46.413Z,59.00
2022-12-12T15:10:28.393Z,49.08
2022-12-12T15:12:59.925Z,48.28
2022-12-12T15:15:33.341Z,57.35
2022-12-12T15:21:22.625Z,54.27
2022-12-12T15:23:47.889Z,58.85
2022-12-12T15:26:55.702Z,64.75
2022-12-12T15:29:53.798Z,59.80
2022-12-12T15:32:29.308Z,55.85
2022-12-12T15:35:08.109Z,56.90
2022-12-12T15:38:06.013Z,54.28
2022-12-12T15:40:47.378Z,50.08
2022-12-12T15:43:28.158Z,54.67
2022-12-12T15:46:27.173Z,55.05
2022-12-12T15:49:04.940Z,61.70
2022-12-12T15:51:35.753Z,48.20
2022-12-12T15:54:15.205Z,51.15
2022-12-12T15:56:50.338Z,54.28
2022-12-12T15:59:30.375Z,56.57
2022-12-12T16:02:31.947Z,52.17
2022-12-12T16:05:10.776Z,50.90
2022-12-12T16:07:45.831Z,54.42
2022-12-12T16:10:20.279Z,53.50
2022-12-12T16:13:53.184Z,48.20
2022-12-12T16:16:51.568Z,48.78
2022-12-12T16:19:44.650Z,50.22
2022-12-12T16:23:04.478Z,57.40
2022-12-12T16:25:40.493Z,50.88
2022-12-12T16:28:32.241Z,51.30
2022-12-12T16:31:16.854Z,47.65
2022-12-12T16:33:55.601Z,49.08
2022-12-12T16:36:41.420Z,51.65
2022-12-12T16:39:24.888Z,46.42
2022-12-12T16:42:06.116Z,46.65
2022-12-12T16:44:42.599Z,45.15
2022-12-12T16:47:28.275Z,48.45
2022-12-12T16:50:11.413Z,47.13
2022-12-12T16:52:57.625Z,57.42
2022-12-12T16:56:08.473Z,43.10
2022-12-12T16:58:36.631Z,47.47
2022-12-12T17:01:11.199Z,47.90
2022-12-12T17:04:21.504Z,49.67
2022-12-12T17:06:51.198Z,46.33
2022-12-12T17:09:45.731Z,48.10
2022-12-12T17:12:22.532Z,51.28
2022-12-12T17:15:14.912Z,46.72
2022-12-12T17:17:54.754Z,49.17
2022-12-12T17:20:27.202Z,46.25
2022-12-12T17:23:30.739Z,47.10
2022-12-12T17:26:06.161Z,47.67
2022-12-12T17:28:55.263Z,53.83
2022-12-12T17:31:33.432Z,45.63
2022-12-12T17:34:30.186Z,44.28
2022-12-12T17:37:33.714Z,45.38
2022-12-12T17:40:08.794Z,48.80
2022-12-12T17:42:52.662Z,43.40
2022-12-12T17:45:41.914Z,48.50
2022-12-12T17:48:22.183Z,47.50
2022-12-12T17:51:25.845Z,46.63
2022-12-12T17:54:01.004Z,47.63
2022-12-12T17:57:02.773Z,50.20
2022-12-12T17:59:44.629Z,50.03
2022-12-12T18:02:45.572Z,50.88
2022-12-12T18:05:42.467Z,53.17
2022-12-12T18:09:08.412Z,47.83
2022-12-12T18:11:48.854Z,53.17
2022-12-12T18:14:32.280Z,60.00
2022-12-12T18:17:11.129Z,48.47
2022-12-12T18:19:59.667Z,52.17
2022-12-12T18:22:53.738Z,51.10
2022-12-12T18:25:49.093Z,52.47
2022-12-12T18:28:30.515Z,58.45
2022-12-12T18:31:15.318Z,39.55
2022-12-12T18:34:14.637Z,39.17
2022-12-12T18:36:53.994Z,35.53
2022-12-12T18:39:26.667Z,30.90
2022-12-12T18:42:05.357Z,34.70
2022-12-12T18:45:09.782Z,36.58
2022-12-12T18:47:50.481Z,37.42
2022-12-12T18:50:32.052Z,38.88
2022-12-12T18:53:25.592Z,37.63
2022-12-12T18:56:05.318Z,36.25
2022-12-12T18:59:47.672Z,40.33
2022-12-12T19:02:13.451Z,39.60
2022-12-12T19:05:16.509Z,36.50
2022-12-12T19:11:44.708Z,38.45
2022-12-12T19:14:45.901Z,35.15
2022-12-12T19:17:29.101Z,39.03
2022-12-12T19:21:07.804Z,43.35
2022-12-12T19:26:45.091Z,44.45
2022-12-12T19:29:20.712Z,47.53
2022-12-12T19:35:04.356Z,39.78
2022-12-12T19:39:00.357Z,39.15
2022-12-12T19:41:54.081Z,45.85
2022-12-12T19:44:37.470Z,38.15
2022-12-12T19:47:10.891Z,37.53
2022-12-12T19:49:48.388Z,38.80
2022-12-12T19:52:43.761Z,42.47
2022-12-12T19:55:20.449Z,39.65
2022-12-12T19:57:48.664Z,43.00
2022-12-12T20:00:23.071Z,37.97
2022-12-12T20:02:50.925Z,43.92
2022-12-12T20:05:24.321Z,40.08
2022-12-12T20:08:17.063Z,42.60
2022-12-12T20:10:55.688Z,43.53
2022-12-12T20:13:34.607Z,47.42
2022-12-12T20:16:15.164Z,54.38
2022-12-12T20:18:47.693Z,61.88
2022-12-12T20:24:30.392Z,41.73
2022-12-12T20:27:15.885Z,42.00
2022-12-12T20:29:56.128Z,37.78
2022-12-12T20:32:31.159Z,46.67
2022-12-12T20:35:04.249Z,58.88
2022-12-12T20:37:52.120Z,48.13
2022-12-12T20:40:25.517Z,53.40
2022-12-12T20:43:03.528Z,54.40
2022-12-12T20:45:39.944Z,57.03
2022-12-12T20:48:09.024Z,41.92
2022-12-12T20:50:40.648Z,38.72
2022-12-12T20:53:36.674Z,37.50
2022-12-12T20:56:46.293Z,36.95
2022-12-12T21:03:35.775Z,38.38
2022-12-12T21:06:52.020Z,37.70
2022-12-12T21:10:24.364Z,41.33
2022-12-12T21:13:34.034Z,38.00
2022-12-12T21:16:24.358Z,37.28
2022-12-12T21:19:09.709Z,42.53
2022-12-12T21:22:01.535Z,41.43
2022-12-12T21:24:36.573Z,43.72
2022-12-12T21:27:28.763Z,41.55
2022-12-12T21:31:01.025Z,39.45
2022-12-12T21:42:31.946Z,39.17
2022-12-12T21:49:57.978Z,36.40
2022-12-12T22:00:36.797Z,35.78
2022-12-12T22:03:34.309Z,36.65
2022-12-12T22:06:11.720Z,36.05
2022-12-12T22:08:40.612Z,35.65
2022-12-12T22:11:10.069Z,38.15
2022-12-12T22:13:40.324Z,31.13
2022-12-12T22:16:15.298Z,38.67
2022-12-12T22:18:43.108Z,38.30
2022-12-12T22:21:15.287Z,37.15
2022-12-12T22:23:43.119Z,38.13
2022-12-12T22:26:18.943Z,36.60
2022-12-12T22:28:47.244Z,35.58
2022-12-12T22:31:14.931Z,38.28
2022-12-12T22:33:45.482Z,36.70
2022-12-12T22:38:41.549Z,35.53
2022-12-12T22:41:11.552Z,36.80
2022-12-12T22:43:39.400Z,38.13
2022-12-12T22:46:08.188Z,40.17
2022-12-12T22:48:36.507Z,42.58
2022-12-12T22:51:21.409Z,37.90
2022-12-12T22:53:49.359Z,40.65
2022-12-12T22:56:17.819Z,44.45
2022-12-12T22:58:45.531Z,49.92
2022-12-12T23:01:18.219Z,46.08
2022-12-12T23:03:47.007Z,42.65
2022-12-12T23:06:23.679Z,45.92
2022-12-12T23:08:59.534Z,41.70
2022-12-12T23:11:29.320Z,46.25
2022-12-12T23:14:01.312Z,49.20
2022-12-12T23:16:30.990Z,46.28
2022-12-12T23:18:59.206Z,43.88
2022-12-12T23:21:29.982Z,42.67
2022-12-12T23:23:57.712Z,49.13
2022-12-12T23:26:29.992Z,49.05
2022-12-12T23:28:59.350Z,43.03
2022-12-12T23:31:32.992Z,50.67
2022-12-12T23:34:04.859Z,47.50
2022-12-12T23:36:32.749Z,53.88
2022-12-12T23:39:04.133Z,52.15
2022-12-12T23:41:31.824Z,50.75
2022-12-12T23:43:59.577Z,43.28
2022-12-12T23:46:33.849Z,47.47
2022-12-12T23:49:08.944Z,45.92
2022-12-12T23:51:39.666Z,50.15
2022-12-12T23:54:11.274Z,45.90
2022-12-12T23:56:39.732Z,45.47
2022-12-12T23:59:10.677Z,47.08
